sensor_id;sensor_type;location;lat;lon;timestamp;temperature;humidity
40249;DHT22;25969;49.970;11.062;2024-02-21T05:07:19;5.90;99.90
40249;DHT22;25969;49.970;11.062;2024-02-21T05:17:20;5.90;99.90
40249;DHT22;25969;49.970;11.062;2024-02-21T05:27:20;6.00;99.90
40249;DHT22;25969;49.970;11.062;2024-02-21T05:37:21;5.90;99.90
40249;DHT22;25969;49.970;11.062;2024-02-21T05:47:22;5.90;99.90
40249;DHT22;25969;49.970;11.062;2024-02-21T05:57:22;5.80;99.90
40249;DHT22;25969;49.970;11.062;2024-02-21T06:07:23;5.70;99.90
40249;DHT22;25969;49.970;11.062;2024-02-21T06:17:24;5.80;99.90
40249;DHT22;25969;49.970;11.062;2024-02-21T06:27:25;5.80;99.90
40249;DHT22;25969;49.970;11.062;2024-02-21T06:37:26;5.90;99.90
40249;DHT22;25969;49.970;11.062;2024-02-21T06:47:26;6.30;99.90
40249;DHT22;25969;49.970;11.062;2024-02-21T06:57:28;6.10;99.90
40249;DHT22;25969;49.970;11.062;2024-02-21T07:07:29;6.20;99.90
40249;DHT22;25969;49.970;11.062;2024-02-21T07:17:30;6.50;99.90
40249;DHT22;25969;49.970;11.062;2024-02-21T07:27:31;6.50;99.90
40249;DHT22;25969;49.970;11.062;2024-02-21T07:37:33;6.60;99.90
40249;DHT22;25969;49.970;11.062;2024-02-21T07:47:34;6.40;99.90
40249;DHT22;25969;49.970;11.062;2024-02-21T07:57:35;6.60;99.90
40249;DHT22;25969;49.970;11.062;2024-02-21T08:07:36;6.90;99.90
40249;DHT22;25969;49.970;11.062;2024-02-21T08:17:37;7.00;99.90
40249;DHT22;25969;49.970;11.062;2024-02-21T08:27:37;7.40;99.90
40249;DHT22;25969;49.970;11.062;2024-02-21T08:37:38;7.90;99.90
40249;DHT22;25969;49.970;11.062;2024-02-21T08:47:39;7.50;99.90
40249;DHT22;25969;49.970;11.062;2024-02-21T08:57:41;7.30;99.90
40249;DHT22;25969;49.970;11.062;2024-02-21T09:07:41;7.20;99.90
40249;DHT22;25969;49.970;11.062;2024-02-21T09:17:42;7.20;99.90
40249;DHT22;25969;49.970;11.062;2024-02-21T09:27:44;7.10;99.90
40249;DHT22;25969;49.970;11.062;2024-02-21T09:37:45;7.50;99.90
40249;DHT22;25969;49.970;11.062;2024-02-21T09:58:26;9.60;99.90
40249;DHT22;25969;49.970;11.062;2024-02-21T10:08:28;10.10;99.90
40249;DHT22;25969;49.970;11.062;2024-02-21T10:18:28;9.50;99.90
40249;DHT22;25969;49.970;11.062;2024-02-21T10:28:29;10.80;99.90
40249;DHT22;25969;49.970;11.062;2024-02-21T10:38:30;10.40;99.90
40249;DHT22;25969;49.970;11.062;2024-02-21T10:49:23;12.30;99.50
40249;DHT22;25969;49.970;11.062;2024-02-21T10:59:30;11.10;99.00
40249;DHT22;25969;49.970;11.062;2024-02-21T11:09:33;10.70;99.90
40249;DHT22;25969;49.970;11.062;2024-02-21T11:19:34;10.70;99.80
40249;DHT22;25969;49.970;11.062;2024-02-21T11:29:40;13.90;94.80
40249;DHT22;25969;49.970;11.062;2024-02-21T11:39:42;15.20;84.60
40249;DHT22;25969;49.970;11.062;2024-02-21T11:49:47;13.40;86.90
40249;DHT22;25969;49.970;11.062;2024-02-21T11:59:51;14.70;81.80
40249;DHT22;25969;49.970;11.062;2024-02-21T12:09:53;16.00;75.90
40249;DHT22;25969;49.970;11.062;2024-02-21T12:19:53;14.30;78.60
40249;DHT22;25969;49.970;11.062;2024-02-21T12:29:54;13.20;83.80
40249;DHT22;25969;49.970;11.062;2024-02-21T12:39:55;13.90;81.60
40249;DHT22;25969;49.970;11.062;2024-02-21T12:49:56;14.20;80.00
40249;DHT22;25969;49.970;11.062;2024-02-21T12:59:58;15.10;76.30
40249;DHT22;25969;49.970;11.062;2024-02-21T13:09:59;13.50;80.80
40249;DHT22;25969;49.970;11.062;2024-02-21T13:19:59;15.30;75.70
40249;DHT22;25969;49.970;11.062;2024-02-21T13:30:00;12.80;84.40
40249;DHT22;25969;49.970;11.062;2024-02-21T13:40:08;12.50;85.20
40249;DHT22;25969;49.970;11.062;2024-02-21T13:50:11;12.60;82.10
40249;DHT22;25969;49.970;11.062;2024-02-21T14:00:15;13.10;80.30
40249;DHT22;25969;49.970;11.062;2024-02-21T14:10:15;12.10;82.00
40249;DHT22;25969;49.970;11.062;2024-02-21T14:20:16;12.20;80.50
40249;DHT22;25969;49.970;11.062;2024-02-21T14:30:17;12.10;81.40
40249;DHT22;25969;49.970;11.062;2024-02-21T14:40:18;12.00;83.20
40249;DHT22;25969;49.970;11.062;2024-02-21T14:50:19;11.70;80.40
40249;DHT22;25969;49.970;11.062;2024-02-21T15:00:20;11.00;84.70
40249;DHT22;25969;49.970;11.062;2024-02-21T15:10:23;10.80;87.80
40249;DHT22;25969;49.970;11.062;2024-02-21T15:20:24;10.70;83.20
40249;DHT22;25969;49.970;11.062;2024-02-21T15:30:24;10.60;83.60
40249;DHT22;25969;49.970;11.062;2024-02-21T15:40:25;10.30;84.10
40249;DHT22;25969;49.970;11.062;2024-02-21T15:50:26;10.10;88.00
40249;DHT22;25969;49.970;11.062;2024-02-21T16:00:28;10.00;84.60
40249;DHT22;25969;49.970;11.062;2024-02-21T16:10:29;10.00;86.80
40249;DHT22;25969;49.970;11.062;2024-02-21T16:20:30;9.80;86.10
40249;DHT22;25969;49.970;11.062;2024-02-21T16:30:31;9.90;86.00
40249;DHT22;25969;49.970;11.062;2024-02-21T16:40:32;9.70;86.40
40249;DHT22;25969;49.970;11.062;2024-02-21T16:50:32;9.40;87.20
40249;DHT22;25969;49.970;11.062;2024-02-21T17:00:33;9.30;88.90
40249;DHT22;25969;49.970;11.062;2024-02-21T17:10:35;8.90;90.20
40249;DHT22;25969;49.970;11.062;2024-02-21T17:20:35;8.70;91.10
40249;DHT22;25969;49.970;11.062;2024-02-21T17:30:36;8.70;90.90
40249;DHT22;25969;49.970;11.062;2024-02-21T17:40:37;8.90;88.30
40249;DHT22;25969;49.970;11.062;2024-02-21T17:50:38;9.00;86.00
40249;DHT22;25969;49.970;11.062;2024-02-21T18:00:39;9.30;83.50
40249;DHT22;25969;49.970;11.062;2024-02-21T18:10:44;9.30;85.20
40249;DHT22;25969;49.970;11.062;2024-02-21T18:20:45;9.30;84.60
40249;DHT22;25969;49.970;11.062;2024-02-21T18:30:46;9.40;85.50
40249;DHT22;25969;49.970;11.062;2024-02-21T18:40:46;9.50;85.60
40249;DHT22;25969;49.970;11.062;2024-02-21T18:50:48;9.60;84.50
40249;DHT22;25969;49.970;11.062;2024-02-21T19:00:49;9.70;84.90
40249;DHT22;25969;49.970;11.062;2024-02-21T19:10:50;9.80;84.60
40249;DHT22;25969;49.970;11.062;2024-02-21T19:20:51;9.90;83.90
40249;DHT22;25969;49.970;11.062;2024-02-21T19:30:52;10.00;83.20
40249;DHT22;25969;49.970;11.062;2024-02-21T19:40:55;10.10;82.20
40249;DHT22;25969;49.970;11.062;2024-02-21T19:50:55;10.20;80.80
40249;DHT22;25969;49.970;11.062;2024-02-21T20:00:57;10.20;81.90
40249;DHT22;25969;49.970;11.062;2024-02-21T20:10:58;10.10;80.00
40249;DHT22;25969;49.970;11.062;2024-02-21T20:20:58;10.20;80.30
40249;DHT22;25969;49.970;11.062;2024-02-21T20:30:59;10.20;79.60
40249;DHT22;25969;49.970;11.062;2024-02-21T20:41:00;10.40;77.00
40249;DHT22;25969;49.970;11.062;2024-02-21T20:51:02;10.40;78.10
40249;DHT22;25969;49.970;11.062;2024-02-21T21:01:03;10.40;76.10
40249;DHT22;25969;49.970;11.062;2024-02-21T21:11:04;10.30;76.40
40249;DHT22;25969;49.970;11.062;2024-02-21T21:21:05;10.90;72.30
40249;DHT22;25969;49.970;11.062;2024-02-21T21:31:06;10.90;73.10
40249;DHT22;25969;49.970;11.062;2024-02-21T21:41:07;10.90;71.90
40249;DHT22;25969;49.970;11.062;2024-02-21T21:51:08;10.90;72.50
40249;DHT22;25969;49.970;11.062;2024-02-21T22:01:33;11.00;72.50
40249;DHT22;25969;49.970;11.062;2024-02-21T22:11:43;11.20;71.00
40249;DHT22;25969;49.970;11.062;2024-02-21T22:21:43;10.90;73.40
40249;DHT22;25969;49.970;11.062;2024-02-21T22:31:44;10.90;71.80
40249;DHT22;25969;49.970;11.062;2024-02-21T22:41:45;10.60;74.80
40249;DHT22;25969;49.970;11.062;2024-02-21T22:51:45;10.40;76.70
